首页
METAR-TAF:

METAR-TAF

机场 :

恩贾梅纳国际机场

恩賈梅納, 乍得

纬度: 12-08N, 经度: 015-02E, 海拔: 295米

当前天气观测

该预报发布于28分钟前的12:00 UTC
风速7节,风向西南,在西南西之间变化
温度 32°C
湿度 67%
气压 1012 hPa
能见度10公里或以上
散云层高于3300英尺

METAR: FTTJ 161200Z 22007KT 220V280 9999 SCT033 32/25 Q1012 NOSIG

时间: 13:28 (12:28 UTC)

预报

该预报发布于1小时和28分钟前的11:00 UTC
预报有效从16日的 12点(UTC)到 17日的 18点(UTC)
风速8节,风向西南
能见度10公里或以上
少量云层高于3000英尺
几率 30% :
短暂存在
从 16日的 15点(UTC)到 16日的 20点(UTC)
雷暴
短暂存在
从 17日的 02点(UTC)到 17日的 10点(UTC)
能見度: 2500
雷暴, 雨

TAF: FTTJ 161100Z 1612/1718 22008KT 9999 FEW030 PROB30 TEMPO 1615/1620 TS TEMPO 1702/1710 2500 TSRA

超过4000个机场的气象观测和天气预报(METAR&TAF报告)。

可查询的气象台以黄色和红色小点在地图上表示。

将鼠标移到小点上方,可查看气象台名称。

然后点击查看天气观测和预报。

如需切换地图:点击带黑十字的绿色按钮放大地图;点击带横线的绿色按钮缩小地图;或者点击绿色箭头查看邻近地区的地图。


METAR-TAF: